KSUE/SUE METAR and TAF weather

Enter ICAO airport designator
Station Type Date Time Source
KSUE METAR 2022/12/04 05:56 UTC NOAA

KSUE 040556Z AUTO 25007KT 10SM CLR M09/M13 A3025 RMK AO2 SLP255 6//// T10891128 11067 21089 400611089 55012 FZRANO


Station Type Date Time Source
KSUE Decoded METAR 2022/12/04 05:56 UTC NOAA

Sturgeon Bay, WI, United States (KSUE) 44-51N 087-25W
Dec 04, 2022 - 12:56 AM EST / 2022.12.04 0556 UTC
Wind: from the WSW (250 degrees) at 8 MPH (7 KT):0
Visibility: 10 mile(s):0
Sky conditions: clear
Temperature: 16.0 F (-8.9 C)
Windchill: 5 F (-15 C):1
Dew Point: 9.0 F (-12.8 C)
Relative Humidity: 73%
Pressure (altimeter): 30.25 in. Hg (1024 hPa)
Pressure tendency: 0.04 inches (1.2 hPa) lower than three hours ago
ob: KSUE 040556Z AUTO 25007KT 10SM CLR M09/M13 A3025 RMK AO2 SLP255 6//// T10891128 11067 21089 400611089 55012 FZRANO
cycle: 6

Station Type Date Time Source
KSUE TAF UTC NOAA

Error!

Example: see airport list